createdAt,value
2022-09-21T00:00:30.499Z,6.23
2022-09-21T00:01:25.878Z,6.26
2022-09-21T00:02:20.884Z,6.26
2022-09-21T00:03:15.945Z,6.26
2022-09-21T00:04:11.892Z,6.29
2022-09-21T00:05:07.080Z,6.37
2022-09-21T00:06:02.327Z,6.36
2022-09-21T00:06:57.428Z,6.42
2022-09-21T00:07:52.792Z,6.42
2022-09-21T00:08:47.972Z,6.46
2022-09-21T00:09:44.322Z,6.49
2022-09-21T00:10:39.512Z,6.60
2022-09-21T00:11:34.656Z,6.68
2022-09-21T00:12:29.722Z,6.71
2022-09-21T00:13:24.951Z,6.73
2022-09-21T00:14:21.913Z,6.72
2022-09-21T00:15:16.990Z,6.73
2022-09-21T00:16:12.240Z,6.82
2022-09-21T00:17:07.319Z,6.93
2022-09-21T00:18:02.958Z,6.98
2022-09-21T00:18:58.146Z,6.99
2022-09-21T00:19:53.240Z,6.99
2022-09-21T00:20:48.488Z,6.94
2022-09-21T00:21:43.747Z,6.82
2022-09-21T00:22:38.826Z,6.73
2022-09-21T00:23:34.006Z,6.64
2022-09-21T00:24:29.125Z,6.63
2022-09-21T00:25:24.181Z,6.62
2022-09-21T00:26:19.389Z,6.63
2022-09-21T00:27:14.489Z,6.65
2022-09-21T00:28:09.845Z,6.67
2022-09-21T00:29:05.057Z,6.71
2022-09-21T00:30:00.183Z,6.77
2022-09-21T00:30:55.383Z,6.80
2022-09-21T00:31:50.635Z,6.78
2022-09-21T00:32:45.672Z,6.81
2022-09-21T00:33:40.874Z,6.84
2022-09-21T00:34:36.098Z,6.89
2022-09-21T00:35:31.303Z,6.90
2022-09-21T00:36:26.673Z,6.88
2022-09-21T00:37:21.778Z,6.83
2022-09-21T00:38:16.859Z,6.80
2022-09-21T00:39:11.962Z,6.80
2022-09-21T00:40:07.078Z,6.88
2022-09-21T00:41:02.084Z,6.91
2022-09-21T00:41:57.138Z,6.90
2022-09-21T00:42:52.189Z,6.90
2022-09-21T00:43:47.282Z,6.85
2022-09-21T00:44:42.380Z,6.77
2022-09-21T00:45:37.469Z,6.76
2022-09-21T00:46:32.559Z,6.75
2022-09-21T00:47:27.651Z,6.76
2022-09-21T00:48:22.736Z,6.76
2022-09-21T00:49:17.809Z,6.74
2022-09-21T00:50:12.938Z,6.68
2022-09-21T00:51:08.059Z,6.62
2022-09-21T00:52:03.125Z,6.64
2022-09-21T00:52:58.191Z,6.67
2022-09-21T00:53:53.283Z,6.64
2022-09-21T00:54:48.394Z,6.63
2022-09-21T00:55:43.500Z,6.60
2022-09-21T00:56:38.595Z,6.57
2022-09-21T00:57:33.651Z,6.53
2022-09-21T00:58:28.732Z,6.55
2022-09-21T00:59:28.058Z,6.57
2022-09-21T01:00:20.061Z,6.52
2022-09-21T01:01:14.268Z,6.56
2022-09-21T01:02:09.397Z,6.57
2022-09-21T01:03:04.619Z,6.58
2022-09-21T01:03:59.701Z,6.49
2022-09-21T01:04:56.155Z,6.46
2022-09-21T01:05:51.430Z,6.44
2022-09-21T01:06:47.189Z,6.40
2022-09-21T01:07:42.483Z,6.35
2022-09-21T01:08:37.621Z,6.36
2022-09-21T01:09:33.372Z,6.37
2022-09-21T01:10:28.716Z,6.35
2022-09-21T01:11:24.481Z,6.36
2022-09-21T01:12:19.544Z,6.44
2022-09-21T01:13:14.921Z,6.42
2022-09-21T01:14:10.855Z,6.34
2022-09-21T01:15:06.107Z,6.25
2022-09-21T01:16:01.397Z,6.16
2022-09-21T01:16:57.652Z,6.13
2022-09-21T01:17:52.912Z,6.23
2022-09-21T01:18:48.668Z,6.39
2022-09-21T01:19:43.759Z,6.51
2022-09-21T01:20:38.956Z,6.59
2022-09-21T01:21:34.652Z,6.64
2022-09-21T01:22:29.753Z,6.64
2022-09-21T01:23:25.670Z,6.67
2022-09-21T01:24:20.752Z,6.60
2022-09-21T01:25:16.129Z,6.55
2022-09-21T01:26:11.933Z,6.52
2022-09-21T01:27:07.334Z,6.55
2022-09-21T01:28:02.383Z,6.51
2022-09-21T01:28:58.709Z,6.44
2022-09-21T01:29:53.929Z,6.39
2022-09-21T01:30:49.848Z,6.32
2022-09-21T01:31:45.115Z,6.23
2022-09-21T01:32:40.387Z,6.15
2022-09-21T01:33:36.062Z,6.12
2022-09-21T01:34:31.284Z,6.12
2022-09-21T01:35:27.079Z,6.12
2022-09-21T01:36:22.281Z,6.10
2022-09-21T01:37:17.646Z,6.09
2022-09-21T01:38:13.337Z,6.10
2022-09-21T01:39:08.549Z,6.15
2022-09-21T01:40:03.711Z,6.13
2022-09-21T01:41:00.115Z,6.10
2022-09-21T01:41:55.386Z,6.07
2022-09-21T01:42:51.154Z,6.02
2022-09-21T01:43:46.346Z,5.99
2022-09-21T01:44:41.571Z,5.99
2022-09-21T01:45:37.240Z,6.02
2022-09-21T01:46:32.526Z,6.12
2022-09-21T01:47:28.323Z,6.23
2022-09-21T01:48:23.513Z,6.28
2022-09-21T01:49:18.791Z,6.31
2022-09-21T01:50:14.598Z,6.28
2022-09-21T01:51:09.751Z,6.24
2022-09-21T01:52:04.808Z,6.23
2022-09-21T01:53:01.140Z,6.17
2022-09-21T01:53:56.358Z,6.20
2022-09-21T01:54:52.137Z,6.25
2022-09-21T01:55:47.367Z,6.31
2022-09-21T01:56:42.523Z,6.32
2022-09-21T01:57:38.319Z,6.27
2022-09-21T01:58:33.559Z,6.18
2022-09-21T01:59:29.457Z,6.08
2022-09-21T02:00:24.561Z,6.07
2022-09-21T02:01:19.885Z,6.04
2022-09-21T02:02:15.745Z,6.00
2022-09-21T02:03:10.834Z,5.96
2022-09-21T02:04:06.308Z,5.91
2022-09-21T02:05:01.299Z,5.88
2022-09-21T02:05:56.393Z,5.86
2022-09-21T02:06:52.201Z,5.83
2022-09-21T02:07:47.451Z,5.80
2022-09-21T02:08:43.359Z,5.71
2022-09-21T02:09:38.448Z,5.65
2022-09-21T02:10:33.801Z,5.62
2022-09-21T02:11:29.606Z,5.54
2022-09-21T02:12:24.860Z,5.49
2022-09-21T02:13:20.070Z,5.47
2022-09-21T02:14:16.401Z,5.53
2022-09-21T02:15:11.657Z,5.56
2022-09-21T02:16:07.505Z,5.62
2022-09-21T02:17:02.628Z,5.72
2022-09-21T02:17:57.991Z,5.79
2022-09-21T02:18:53.667Z,5.93
2022-09-21T02:19:48.902Z,6.04
2022-09-21T02:20:44.098Z,6.11
2022-09-21T02:21:39.284Z,6.09
2022-09-21T02:22:34.641Z,6.09
2022-09-21T02:23:29.746Z,6.08
2022-09-21T02:24:24.846Z,6.07
2022-09-21T02:25:19.841Z,6.01
2022-09-21T02:26:14.978Z,5.99
2022-09-21T02:27:09.923Z,5.97
2022-09-21T02:28:04.995Z,5.91
2022-09-21T02:29:00.113Z,5.81
2022-09-21T02:29:55.163Z,5.76
2022-09-21T02:30:50.278Z,5.78
2022-09-21T02:31:45.366Z,5.74
2022-09-21T02:32:41.819Z,5.79
2022-09-21T02:33:37.023Z,5.86
2022-09-21T02:34:32.149Z,5.83
2022-09-21T02:35:27.372Z,5.80
2022-09-21T02:36:22.513Z,5.74
2022-09-21T02:37:17.572Z,5.71
2022-09-21T02:38:12.699Z,5.72
2022-09-21T02:39:07.799Z,5.72
2022-09-21T02:40:02.983Z,5.75
2022-09-21T02:40:57.935Z,5.72
2022-09-21T02:41:53.188Z,5.68
2022-09-21T02:42:48.159Z,5.65
2022-09-21T02:43:43.277Z,5.65
2022-09-21T02:44:38.347Z,5.64
2022-09-21T02:45:33.444Z,5.72
2022-09-21T02:46:28.556Z,5.83
2022-09-21T02:47:23.625Z,5.88
2022-09-21T02:48:18.694Z,5.89
2022-09-21T02:49:13.830Z,5.88
2022-09-21T02:50:08.993Z,5.88
2022-09-21T02:51:03.948Z,5.84
2022-09-21T02:51:59.139Z,5.85
2022-09-21T02:52:54.351Z,5.85
2022-09-21T02:53:49.471Z,5.82
2022-09-21T02:54:44.560Z,5.84
2022-09-21T02:55:39.941Z,5.90
2022-09-21T02:56:35.035Z,5.90
2022-09-21T02:57:30.204Z,5.92
2022-09-21T02:58:25.441Z,5.87
2022-09-21T02:59:20.413Z,5.86
2022-09-21T03:00:15.910Z,5.89
2022-09-21T03:01:10.986Z,5.86
2022-09-21T03:02:06.243Z,5.81
2022-09-21T03:03:01.341Z,5.68
2022-09-21T03:03:56.528Z,5.54
2022-09-21T03:04:51.736Z,5.42
2022-09-21T03:05:46.854Z,5.33
2022-09-21T03:06:42.058Z,5.31
2022-09-21T03:07:37.411Z,5.35
2022-09-21T03:08:32.528Z,5.35
2022-09-21T03:09:27.618Z,5.36
2022-09-21T03:10:22.709Z,5.38
2022-09-21T03:11:18.055Z,5.47
2022-09-21T03:12:13.164Z,5.46
2022-09-21T03:13:08.255Z,5.43
2022-09-21T03:14:03.460Z,5.38
2022-09-21T03:14:58.570Z,5.36
2022-09-21T03:15:53.967Z,5.34
2022-09-21T03:16:49.225Z,5.34
2022-09-21T03:17:44.331Z,5.33
2022-09-21T03:18:39.562Z,5.32
2022-09-21T03:19:34.653Z,5.33
2022-09-21T03:20:29.843Z,5.33
2022-09-21T03:21:25.039Z,5.32
2022-09-21T03:22:20.341Z,5.32
2022-09-21T03:23:15.390Z,5.34
2022-09-21T03:24:10.710Z,5.36
2022-09-21T03:25:05.788Z,5.40
2022-09-21T03:26:00.971Z,5.42
2022-09-21T03:26:56.093Z,5.42
2022-09-21T03:27:51.191Z,5.40
2022-09-21T03:28:46.279Z,5.39
2022-09-21T03:29:41.360Z,5.36
2022-09-21T03:30:36.420Z,5.34
2022-09-21T03:31:31.725Z,5.35
2022-09-21T03:32:26.748Z,5.33
2022-09-21T03:33:21.731Z,5.30
2022-09-21T03:34:20.886Z,5.28
2022-09-21T03:35:15.974Z,5.35
2022-09-21T03:36:11.307Z,5.42
2022-09-21T03:37:06.300Z,5.46
2022-09-21T03:38:01.404Z,5.40
2022-09-21T03:38:56.605Z,5.38
2022-09-21T03:39:51.695Z,5.40
2022-09-21T03:40:46.904Z,5.34
2022-09-21T03:41:41.994Z,5.35
2022-09-21T03:42:37.101Z,5.38
2022-09-21T03:43:32.180Z,5.38
2022-09-21T03:44:27.532Z,5.34
2022-09-21T03:45:22.621Z,5.31
2022-09-21T03:46:17.865Z,5.33
2022-09-21T03:47:12.920Z,5.37
2022-09-21T03:48:08.311Z,5.41
2022-09-21T03:49:03.400Z,5.44
2022-09-21T03:49:58.505Z,5.42
2022-09-21T03:50:53.718Z,5.42
2022-09-21T03:51:48.823Z,5.35
2022-09-21T03:52:44.014Z,5.30
2022-09-21T03:53:39.239Z,5.29
2022-09-21T03:54:34.387Z,5.23
2022-09-21T03:55:29.447Z,5.18
2022-09-21T03:56:24.786Z,5.11
2022-09-21T03:57:19.895Z,5.04
2022-09-21T03:58:14.997Z,5.10
2022-09-21T03:59:13.935Z,5.22
2022-09-21T04:00:05.417Z,5.28
2022-09-21T04:01:00.535Z,5.30
2022-09-21T04:01:55.729Z,5.34
2022-09-21T04:02:50.975Z,5.33
2022-09-21T04:03:46.067Z,5.32
2022-09-21T04:04:41.433Z,5.38
2022-09-21T04:05:36.630Z,5.38
2022-09-21T04:06:31.872Z,5.32
2022-09-21T04:07:27.139Z,5.29
2022-09-21T04:08:22.234Z,5.31
2022-09-21T04:09:17.431Z,5.33
2022-09-21T04:10:12.660Z,5.36
2022-09-21T04:11:07.760Z,5.29
2022-09-21T04:12:02.990Z,5.24
2022-09-21T04:12:58.229Z,5.23
2022-09-21T04:13:53.401Z,5.24
2022-09-21T04:14:48.499Z,5.21
2022-09-21T04:15:43.672Z,5.19
2022-09-21T04:16:38.716Z,5.26
2022-09-21T04:17:34.088Z,5.29
2022-09-21T04:18:29.184Z,5.28
2022-09-21T04:19:24.248Z,5.24
2022-09-21T04:20:19.345Z,5.27
2022-09-21T04:21:14.703Z,5.25
2022-09-21T04:22:09.941Z,5.24
2022-09-21T04:23:05.018Z,5.27
2022-09-21T04:24:00.247Z,5.25
2022-09-21T04:24:55.352Z,5.19
2022-09-21T04:25:50.548Z,5.10
2022-09-21T04:26:45.773Z,5.13
2022-09-21T04:27:40.875Z,5.15
2022-09-21T04:28:36.082Z,5.15
2022-09-21T04:29:31.315Z,5.14
2022-09-21T04:30:26.400Z,5.11
2022-09-21T04:31:21.561Z,5.11
2022-09-21T04:32:16.552Z,5.10
2022-09-21T04:33:11.650Z,5.09
2022-09-21T04:34:06.872Z,5.07
2022-09-21T04:35:01.978Z,5.13
2022-09-21T04:35:57.036Z,5.19
2022-09-21T04:36:52.135Z,5.17
2022-09-21T04:37:47.248Z,5.23
2022-09-21T04:38:42.447Z,5.29
2022-09-21T04:39:37.558Z,5.35
2022-09-21T04:40:32.697Z,5.37
2022-09-21T04:41:27.678Z,5.43
2022-09-21T04:42:22.794Z,5.46
2022-09-21T04:43:22.500Z,5.44
2022-09-21T04:44:12.913Z,5.34
2022-09-21T04:45:07.999Z,5.35
2022-09-21T04:46:03.085Z,5.40
2022-09-21T04:46:58.090Z,5.46
2022-09-21T04:47:53.092Z,5.57
2022-09-21T04:48:48.097Z,5.66
2022-09-21T04:49:43.138Z,5.61
2022-09-21T04:50:38.263Z,5.59
2022-09-21T04:51:33.334Z,5.52
2022-09-21T04:52:28.450Z,5.44
2022-09-21T04:53:23.749Z,5.30
2022-09-21T04:54:19.022Z,5.23
2022-09-21T04:55:14.172Z,5.16
2022-09-21T04:56:09.600Z,5.07
2022-09-21T04:57:04.639Z,5.01
2022-09-21T04:58:01.141Z,4.97
2022-09-21T04:58:56.470Z,4.94
2022-09-21T04:59:52.302Z,4.88
2022-09-21T05:00:47.509Z,4.82
2022-09-21T05:01:42.754Z,4.82
2022-09-21T05:02:38.511Z,4.85
2022-09-21T05:03:33.792Z,4.84
2022-09-21T05:04:29.533Z,4.84
2022-09-21T05:05:24.776Z,4.81
2022-09-21T05:06:20.237Z,4.78
2022-09-21T05:07:15.915Z,4.81
2022-09-21T05:08:11.314Z,4.81
2022-09-21T05:09:06.447Z,4.80
2022-09-21T05:10:02.964Z,4.78
2022-09-21T05:10:58.255Z,4.80
2022-09-21T05:11:53.965Z,4.80
2022-09-21T05:12:49.246Z,4.80
2022-09-21T05:13:44.503Z,4.81
2022-09-21T05:14:40.352Z,4.79
2022-09-21T05:15:35.670Z,4.78
2022-09-21T05:16:31.503Z,4.73
2022-09-21T05:17:26.709Z,4.71
2022-09-21T05:18:22.100Z,4.72
2022-09-21T05:19:17.972Z,4.76
2022-09-21T05:20:13.220Z,4.79
2022-09-21T05:21:08.933Z,4.81
2022-09-21T05:22:04.819Z,4.84
2022-09-21T05:23:00.104Z,4.87
2022-09-21T05:23:55.951Z,4.89
2022-09-21T05:24:51.243Z,4.92
2022-09-21T05:25:46.669Z,4.98
2022-09-21T05:26:42.298Z,5.05
2022-09-21T05:27:37.605Z,5.12
2022-09-21T05:28:36.586Z,5.14
2022-09-21T05:29:29.818Z,5.09
2022-09-21T05:30:24.681Z,5.06
2022-09-21T05:31:20.068Z,5.06
2022-09-21T05:32:15.780Z,5.07
2022-09-21T05:33:10.942Z,5.04
2022-09-21T05:34:06.260Z,5.00
2022-09-21T05:35:02.035Z,5.02
2022-09-21T05:35:57.374Z,5.05
2022-09-21T05:36:52.846Z,5.06
2022-09-21T05:37:49.005Z,5.05
2022-09-21T05:38:44.330Z,5.08
2022-09-21T05:39:40.110Z,5.12
2022-09-21T05:40:35.565Z,5.14
2022-09-21T05:41:31.079Z,5.12
2022-09-21T05:42:26.723Z,5.06
2022-09-21T05:43:22.054Z,4.98
2022-09-21T05:44:17.823Z,4.93
2022-09-21T05:45:13.134Z,4.86
2022-09-21T05:46:08.592Z,4.89
2022-09-21T05:47:04.218Z,4.95
2022-09-21T05:47:59.564Z,4.97
2022-09-21T05:48:54.877Z,5.01
2022-09-21T05:49:51.206Z,5.05
2022-09-21T05:50:46.565Z,5.13
2022-09-21T05:51:42.329Z,5.23
2022-09-21T05:52:37.667Z,5.32
2022-09-21T05:53:33.014Z,5.35
2022-09-21T05:54:28.768Z,5.40
2022-09-21T05:55:24.136Z,5.43
2022-09-21T05:56:19.896Z,5.44
2022-09-21T05:57:15.256Z,5.43
2022-09-21T05:58:10.632Z,5.39
2022-09-21T05:59:06.762Z,5.38
2022-09-21T06:00:02.125Z,5.41
2022-09-21T06:00:57.941Z,5.49
2022-09-21T06:01:53.222Z,5.60
2022-09-21T06:02:48.699Z,5.72
2022-09-21T06:03:44.308Z,5.77
2022-09-21T06:04:39.623Z,5.84
2022-09-21T06:05:35.359Z,5.94
2022-09-21T06:06:30.684Z,6.00
2022-09-21T06:07:26.085Z,6.00
2022-09-21T06:08:21.780Z,5.97
2022-09-21T06:09:17.177Z,5.92
2022-09-21T06:10:12.552Z,5.87
2022-09-21T06:11:08.929Z,5.86
2022-09-21T06:12:04.320Z,5.88
2022-09-21T06:12:59.994Z,5.94
2022-09-21T06:13:55.469Z,6.00
2022-09-21T06:14:50.701Z,6.13
2022-09-21T06:15:46.105Z,6.18
2022-09-21T06:16:41.573Z,6.14
2022-09-21T06:17:38.023Z,6.07
2022-09-21T06:18:33.419Z,6.05
2022-09-21T06:19:28.790Z,6.04
2022-09-21T06:20:24.591Z,6.03
2022-09-21T06:21:20.026Z,6.03
2022-09-21T06:22:15.484Z,6.05
2022-09-21T06:23:10.869Z,6.09
2022-09-21T06:24:05.886Z,6.08
2022-09-21T06:25:00.889Z,6.12
2022-09-21T06:25:58.413Z,6.17
2022-09-21T06:26:51.010Z,6.24
2022-09-21T06:27:46.042Z,6.30
2022-09-21T06:28:41.153Z,6.40
2022-09-21T06:29:36.143Z,6.46
2022-09-21T06:30:31.159Z,6.53
2022-09-21T06:31:29.620Z,6.59
2022-09-21T06:32:24.873Z,6.61
2022-09-21T06:33:19.770Z,6.64
2022-09-21T06:34:14.797Z,6.69
2022-09-21T06:35:09.867Z,6.79
2022-09-21T06:36:04.962Z,6.87
2022-09-21T06:36:59.950Z,6.94
2022-09-21T06:37:55.060Z,6.99
2022-09-21T06:38:50.062Z,7.05
2022-09-21T06:39:45.132Z,7.11
2022-09-21T06:40:41.280Z,7.19
2022-09-21T06:41:36.644Z,7.31
2022-09-21T06:42:32.376Z,7.42
2022-09-21T06:43:27.749Z,7.56
2022-09-21T06:44:23.114Z,7.62
2022-09-21T06:45:18.961Z,7.70
2022-09-21T06:46:14.379Z,7.77
2022-09-21T06:47:10.286Z,7.83
2022-09-21T06:48:05.578Z,7.91
2022-09-21T06:49:00.940Z,8.00
2022-09-21T06:49:56.731Z,8.08
2022-09-21T06:50:52.156Z,8.19
2022-09-21T06:51:47.668Z,8.23
2022-09-21T06:52:44.210Z,8.27
2022-09-21T06:53:39.428Z,8.39
2022-09-21T06:54:35.354Z,8.47
2022-09-21T06:55:30.738Z,8.55
2022-09-21T06:56:26.119Z,8.60
2022-09-21T06:57:21.996Z,8.66
2022-09-21T06:58:17.353Z,8.73
2022-09-21T06:59:13.258Z,8.79
2022-09-21T07:00:08.507Z,8.90
2022-09-21T07:01:03.952Z,8.97
2022-09-21T07:01:59.756Z,9.01
2022-09-21T07:02:55.032Z,9.05
2022-09-21T07:03:50.507Z,9.08
2022-09-21T07:04:46.748Z,9.14
2022-09-21T07:05:42.123Z,9.25
2022-09-21T07:06:37.955Z,9.39
2022-09-21T07:07:33.345Z,9.57
2022-09-21T07:10:21.141Z,9.99
2022-09-21T07:11:15.683Z,10.13
2022-09-21T07:12:11.289Z,10.18
2022-09-21T07:13:06.573Z,10.29
2022-09-21T07:14:02.473Z,10.42
2022-09-21T07:14:57.950Z,10.51
2022-09-21T07:15:53.518Z,10.51
2022-09-21T07:16:49.684Z,10.55
2022-09-21T07:17:50.302Z,10.57
2022-09-21T07:18:43.924Z,10.58
2022-09-21T07:19:36.417Z,10.68
2022-09-21T07:20:31.821Z,10.81
2022-09-21T07:21:27.594Z,10.89
2022-09-21T07:22:23.075Z,10.97
2022-09-21T07:23:18.979Z,11.04
2022-09-21T07:24:14.369Z,11.05
2022-09-21T07:25:09.927Z,11.18
2022-09-21T07:26:05.707Z,11.32
2022-09-21T07:27:01.082Z,11.58
2022-09-21T07:27:56.552Z,11.71
2022-09-21T07:28:52.902Z,11.72
2022-09-21T07:29:48.630Z,11.67
2022-09-21T07:30:43.780Z,11.75
2022-09-21T07:31:38.875Z,11.86
2022-09-21T07:32:33.857Z,11.81
2022-09-21T07:33:31.662Z,11.71
2022-09-21T07:34:24.983Z,11.60
2022-09-21T07:35:19.031Z,11.49
2022-09-21T07:36:14.144Z,11.48
2022-09-21T07:37:09.360Z,11.53
2022-09-21T07:38:04.312Z,11.70
2022-09-21T07:38:59.746Z,11.58
2022-09-21T07:39:55.425Z,11.59
2022-09-21T07:40:51.066Z,11.56
2022-09-21T07:41:46.533Z,11.49
2022-09-21T07:42:42.330Z,11.56
2022-09-21T07:43:37.708Z,11.64
2022-09-21T07:44:33.561Z,11.56
2022-09-21T07:45:29.055Z,11.22
2022-09-21T07:46:24.418Z,10.88
2022-09-21T07:47:20.111Z,10.74
2022-09-21T07:48:15.539Z,10.61
2022-09-21T07:49:12.143Z,10.69
2022-09-21T07:50:07.577Z,10.90
2022-09-21T07:51:02.990Z,11.11
2022-09-21T07:52:03.692Z,11.45
2022-09-21T07:52:55.206Z,11.91
2022-09-21T07:53:49.266Z,12.24
2022-09-21T07:54:44.262Z,12.43
2022-09-21T07:55:39.289Z,12.63
2022-09-21T07:56:34.274Z,12.80
2022-09-21T07:57:29.410Z,12.79
2022-09-21T07:58:24.538Z,12.95
2022-09-21T07:59:19.646Z,13.15
2022-09-21T08:00:14.661Z,13.09
2022-09-21T08:01:09.709Z,12.88
2022-09-21T08:02:04.723Z,12.88
2022-09-21T08:02:59.807Z,13.04
2022-09-21T08:03:54.796Z,13.22
2022-09-21T08:04:49.795Z,13.38
2022-09-21T08:05:45.238Z,13.64
2022-09-21T08:06:40.638Z,13.84
2022-09-21T08:07:36.435Z,13.78
2022-09-21T08:08:31.974Z,13.70
2022-09-21T08:09:27.764Z,13.33
2022-09-21T08:10:23.238Z,12.95
2022-09-21T08:11:18.797Z,12.72
2022-09-21T08:12:14.454Z,12.72
2022-09-21T08:13:09.868Z,12.92
2022-09-21T08:14:05.467Z,12.98
2022-09-21T08:15:01.532Z,13.18
2022-09-21T08:15:57.079Z,13.38
2022-09-21T08:16:52.982Z,13.55
2022-09-21T08:17:48.374Z,13.52
2022-09-21T08:18:43.771Z,13.23
2022-09-21T08:19:39.463Z,12.92
2022-09-21T08:20:35.063Z,13.11
2022-09-21T08:21:30.869Z,13.33
2022-09-21T08:22:26.356Z,12.93
2022-09-21T08:23:21.583Z,12.76
2022-09-21T08:24:17.530Z,12.69
2022-09-21T08:25:13.050Z,12.62
2022-09-21T08:26:08.557Z,12.55
2022-09-21T08:27:04.828Z,12.65
2022-09-21T08:28:00.444Z,12.67
2022-09-21T08:28:56.127Z,12.59
2022-09-21T08:29:51.552Z,12.59
2022-09-21T08:30:46.973Z,12.60
2022-09-21T08:31:42.845Z,12.72
2022-09-21T08:32:50.343Z,12.59
2022-09-21T08:33:35.336Z,12.40
2022-09-21T08:34:29.793Z,12.46
2022-09-21T08:35:25.021Z,12.54
2022-09-21T08:36:21.780Z,12.59
2022-09-21T08:37:17.173Z,12.60
2022-09-21T08:38:12.689Z,12.68
2022-09-21T08:39:08.798Z,12.64
2022-09-21T08:40:04.384Z,12.88
2022-09-21T08:41:00.147Z,12.79
2022-09-21T08:41:55.670Z,12.83
2022-09-21T08:42:51.095Z,12.90
2022-09-21T08:43:46.769Z,13.05
2022-09-21T08:44:42.247Z,13.05
2022-09-21T08:45:38.205Z,13.06
2022-09-21T08:46:33.774Z,13.11
2022-09-21T08:47:29.047Z,13.23
2022-09-21T08:48:29.047Z,13.45
2022-09-21T08:49:21.272Z,13.35
2022-09-21T08:50:15.751Z,13.52
2022-09-21T08:51:10.865Z,13.66
2022-09-21T08:52:05.973Z,13.62
2022-09-21T08:53:01.003Z,13.68
2022-09-21T08:53:55.988Z,13.87
2022-09-21T08:54:51.108Z,13.65
2022-09-21T08:55:46.162Z,13.41
2022-09-21T08:57:03.555Z,13.57
2022-09-21T08:57:37.168Z,13.92
2022-09-21T08:58:31.247Z,14.44
2022-09-21T08:59:26.239Z,14.52
2022-09-21T09:00:21.340Z,14.57
2022-09-21T09:01:16.536Z,14.53
2022-09-21T09:02:11.656Z,14.43
2022-09-21T09:03:06.632Z,14.33
2022-09-21T09:04:04.494Z,14.21
2022-09-21T09:04:56.733Z,14.30
2022-09-21T09:05:51.745Z,14.18
2022-09-21T09:06:46.900Z,13.89
2022-09-21T09:07:41.912Z,13.68
2022-09-21T09:08:37.025Z,13.39
2022-09-21T09:09:32.019Z,13.11
2022-09-21T09:10:30.658Z,13.13
2022-09-21T09:11:25.671Z,13.25
2022-09-21T09:12:20.686Z,13.44
2022-09-21T09:13:15.803Z,13.26
2022-09-21T09:14:10.795Z,13.26
2022-09-21T09:15:05.810Z,13.41
2022-09-21T09:16:00.859Z,13.51
2022-09-21T09:16:55.840Z,13.73
2022-09-21T09:17:50.971Z,14.04
2022-09-21T09:18:46.644Z,14.03
2022-09-21T09:19:41.997Z,14.02
2022-09-21T09:20:37.683Z,13.99
2022-09-21T09:21:33.382Z,14.01
2022-09-21T09:22:28.897Z,14.14
2022-09-21T09:23:24.600Z,14.28
2022-09-21T09:24:20.135Z,14.22
2022-09-21T09:25:15.656Z,14.12
2022-09-21T09:26:11.865Z,14.04
2022-09-21T09:27:06.959Z,14.18
2022-09-21T09:28:02.490Z,14.55
2022-09-21T09:28:58.727Z,15.05
2022-09-21T09:29:54.266Z,15.44
2022-09-21T09:30:50.117Z,15.89
2022-09-21T09:31:45.619Z,15.92
2022-09-21T09:32:41.035Z,15.99
2022-09-21T09:33:36.742Z,15.82
2022-09-21T09:34:32.271Z,15.80
2022-09-21T09:35:28.104Z,16.15
2022-09-21T09:36:46.562Z,16.40
2022-09-21T09:37:20.084Z,16.40
2022-09-21T09:38:14.837Z,16.17
2022-09-21T09:39:10.219Z,15.95
2022-09-21T09:40:05.808Z,15.93
2022-09-21T09:41:01.903Z,15.33
2022-09-21T09:41:57.411Z,15.07
2022-09-21T09:42:53.219Z,15.40
2022-09-21T09:43:48.698Z,15.87
2022-09-21T09:44:44.227Z,16.35
2022-09-21T09:45:39.923Z,16.74
2022-09-21T09:46:35.465Z,17.02
2022-09-21T09:47:31.261Z,17.07
2022-09-21T09:48:26.836Z,16.70
2022-09-21T09:49:22.159Z,16.31
2022-09-21T09:50:18.000Z,16.05
2022-09-21T09:51:13.542Z,16.08
2022-09-21T09:52:08.935Z,16.02
2022-09-21T09:53:05.180Z,15.86
2022-09-21T09:54:00.870Z,15.45
2022-09-21T09:54:56.551Z,15.53
2022-09-21T09:55:51.984Z,15.69
2022-09-21T09:56:47.498Z,15.73
2022-09-21T09:57:43.274Z,15.38
2022-09-21T09:58:38.683Z,15.30
2022-09-21T09:59:34.477Z,15.59
2022-09-21T10:00:29.760Z,16.01
2022-09-21T10:01:25.205Z,16.37
2022-09-21T10:02:20.840Z,16.40
2022-09-21T10:03:16.368Z,16.76
2022-09-21T10:04:11.801Z,17.04
2022-09-21T10:05:08.008Z,16.97
2022-09-21T10:06:03.518Z,16.93
2022-09-21T10:06:59.161Z,16.62
2022-09-21T10:07:55.269Z,15.94
2022-09-21T10:08:50.716Z,15.26
2022-09-21T10:09:46.589Z,15.08
2022-09-21T10:10:42.128Z,15.57
2022-09-21T10:11:37.689Z,15.84
2022-09-21T10:12:33.224Z,16.19
2022-09-21T10:13:28.905Z,16.44
2022-09-21T10:14:24.572Z,16.48
2022-09-21T10:15:19.859Z,16.16
2022-09-21T10:16:15.331Z,16.08
2022-09-21T10:17:11.328Z,16.55
2022-09-21T10:18:06.714Z,17.05
2022-09-21T10:19:02.256Z,17.51
2022-09-21T10:19:58.526Z,17.55
2022-09-21T10:20:54.061Z,17.21
2022-09-21T10:21:52.136Z,17.35
2022-09-21T10:22:44.855Z,17.55
2022-09-21T10:23:41.796Z,17.67
2022-09-21T10:24:36.926Z,17.93
2022-09-21T10:25:34.814Z,17.87
2022-09-21T10:26:29.004Z,17.88
2022-09-21T10:27:23.184Z,18.15
2022-09-21T10:28:18.215Z,18.30
2022-09-21T10:29:13.246Z,17.97
2022-09-21T10:30:08.218Z,17.81
2022-09-21T10:31:03.368Z,17.92
2022-09-21T10:32:03.890Z,18.27
2022-09-21T10:32:59.414Z,18.44
2022-09-21T10:33:54.947Z,18.63
2022-09-21T10:34:50.935Z,18.62
2022-09-21T10:35:46.393Z,18.27
2022-09-21T10:36:41.927Z,18.44
2022-09-21T10:37:38.144Z,18.71
2022-09-21T10:38:33.705Z,18.79
2022-09-21T10:39:29.546Z,18.61
2022-09-21T10:40:24.984Z,18.40
2022-09-21T10:41:20.612Z,17.95
2022-09-21T10:42:16.561Z,17.38
2022-09-21T10:43:12.021Z,16.91
2022-09-21T10:44:08.023Z,16.58
2022-09-21T10:45:03.578Z,16.51
2022-09-21T10:45:58.972Z,16.59
2022-09-21T10:47:50.201Z,17.36
2022-09-21T10:48:45.603Z,17.56
2022-09-21T10:49:42.006Z,17.74
2022-09-21T10:50:37.621Z,17.96
2022-09-21T10:51:33.516Z,17.79
2022-09-21T10:52:28.975Z,17.55
2022-09-21T10:53:24.472Z,17.22
2022-09-21T10:54:20.234Z,16.48
2022-09-21T10:55:15.721Z,16.33
2022-09-21T10:56:16.062Z,16.86
2022-09-21T10:57:06.931Z,17.46
2022-09-21T10:58:02.988Z,17.82
2022-09-21T10:58:58.269Z,17.65
2022-09-21T10:59:54.160Z,17.37
2022-09-21T11:00:49.689Z,17.03
2022-09-21T11:01:45.238Z,16.86
2022-09-21T11:02:41.036Z,16.95
2022-09-21T11:03:36.559Z,17.56
2022-09-21T11:04:31.970Z,17.82
2022-09-21T11:05:28.448Z,18.19
2022-09-21T11:06:23.861Z,18.58
2022-09-21T11:07:19.940Z,18.45
2022-09-21T11:08:19.515Z,18.25
2022-09-21T11:09:14.896Z,18.09
2022-09-21T11:10:10.640Z,17.67
2022-09-21T11:11:06.098Z,17.47
2022-09-21T11:12:01.584Z,17.16
2022-09-21T11:12:57.099Z,16.97
2022-09-21T11:13:53.572Z,17.34
2022-09-21T11:14:49.063Z,17.28
2022-09-21T11:15:44.892Z,17.47
2022-09-21T11:16:40.384Z,17.83
2022-09-21T11:17:35.901Z,18.34
2022-09-21T11:18:31.828Z,18.69
2022-09-21T11:19:27.295Z,18.64
2022-09-21T11:20:23.005Z,18.94
2022-09-21T11:21:18.539Z,19.03
2022-09-21T11:22:14.033Z,19.23
2022-09-21T11:23:09.846Z,19.53
2022-09-21T11:24:05.225Z,19.51
2022-09-21T11:25:00.731Z,19.35
2022-09-21T11:25:56.987Z,19.12
2022-09-21T11:26:52.409Z,18.96
2022-09-21T11:27:48.205Z,19.08
2022-09-21T11:28:43.882Z,19.27
2022-09-21T11:29:39.469Z,18.72
2022-09-21T11:30:34.936Z,18.06
2022-09-21T11:31:29.851Z,17.68
2022-09-21T11:32:24.927Z,17.20
2022-09-21T11:33:20.013Z,16.67
2022-09-21T11:34:15.083Z,16.39
2022-09-21T11:35:10.134Z,16.14
2022-09-21T11:36:05.281Z,16.22
2022-09-21T11:37:00.361Z,16.89
2022-09-21T11:37:55.362Z,17.48
2022-09-21T11:38:50.352Z,17.90
2022-09-21T11:39:45.473Z,18.15
2022-09-21T11:40:40.771Z,18.08
2022-09-21T11:41:38.686Z,17.86
2022-09-21T11:42:33.687Z,17.67
2022-09-21T11:43:28.784Z,17.38
2022-09-21T11:44:23.770Z,17.24
2022-09-21T11:45:18.931Z,17.55
2022-09-21T11:46:13.974Z,18.05
2022-09-21T11:47:08.930Z,18.37
2022-09-21T11:48:04.000Z,18.39
2022-09-21T11:48:59.132Z,18.22
2022-09-21T11:50:07.741Z,18.03
2022-09-21T11:51:45.491Z,17.57
2022-09-21T11:52:41.213Z,16.93
2022-09-21T11:53:36.708Z,17.20
2022-09-21T11:54:32.241Z,17.52
2022-09-21T11:55:27.780Z,17.45
2022-09-21T11:56:22.972Z,17.40
2022-09-21T11:57:18.081Z,17.13
2022-09-21T11:58:13.127Z,16.80
2022-09-21T11:59:12.568Z,17.16
2022-09-21T12:00:08.017Z,16.86
2022-09-21T12:01:03.616Z,16.69
2022-09-21T12:01:59.234Z,16.50
2022-09-21T12:02:54.648Z,16.33
2022-09-21T12:03:50.118Z,16.08
2022-09-21T12:04:46.394Z,15.50
2022-09-21T12:05:41.895Z,15.22
2022-09-21T12:06:37.546Z,15.34
2022-09-21T12:07:33.070Z,16.06
2022-09-21T12:08:28.516Z,16.67
2022-09-21T12:09:24.454Z,17.12
2022-09-21T12:10:19.962Z,17.48
2022-09-21T12:11:15.904Z,17.11